Time;durP1;ratioP1;P1;durP2;ratioP2;P2;SDS_P1;SDS_P2;PMS_P1;PMS_P2;Temp;Humidity;BMP_temperature;BMP_pressure;BME280_temperature;BME280_humidity;BME280_pressure;Samples;Min_cycle;Max_cycle;Signal;HPM_P1;HPM_P2
2023/12/17 00:00:41;;;;;;;3.65;2.33;;;;;;;5.13;52.10;100875.53;4941192;28;20031;-79
2023/12/17 00:03:06;;;;;;;4.07;2.60;;;;;;;5.16;52.08;100895.34;4941528;28;20027;-78
2023/12/17 00:05:31;;;;;;;4.25;2.58;;;;;;;5.14;52.10;100897.97;4974587;28;20395;-77
2023/12/17 00:07:57;;;;;;;7.05;2.95;;;;;;;5.15;52.11;100893.63;4941121;28;20035;-78
2023/12/17 00:10:22;;;;;;;3.85;2.47;;;;;;;5.14;52.50;100903.16;4956936;28;20471;-78
2023/12/17 00:12:48;;;;;;;4.78;2.63;;;;;;;5.10;52.65;100901.50;4941272;28;20031;-79
2023/12/17 00:15:13;;;;;;;4.63;2.65;;;;;;;5.14;52.45;100902.28;4941028;28;20034;-79
2023/12/17 00:17:39;;;;;;;4.32;2.72;;;;;;;5.13;51.94;100909.19;4940558;28;20035;-79
2023/12/17 00:20:05;;;;;;;5.30;2.90;;;;;;;5.10;52.39;100906.66;4940651;28;20046;-79
2023/12/17 00:22:30;;;;;;;4.57;2.63;;;;;;;5.06;52.22;100905.88;4940890;28;20110;-79
2023/12/17 00:24:56;;;;;;;4.50;2.60;;;;;;;5.13;52.43;100919.56;4940814;28;20122;-79
2023/12/17 00:27:21;;;;;;;3.85;2.30;;;;;;;5.07;52.42;100907.56;4956862;28;20471;-79
2023/12/17 00:29:47;;;;;;;4.60;2.67;;;;;;;5.04;52.25;100902.47;4924616;28;20070;-78
2023/12/17 00:32:12;;;;;;;4.53;2.80;;;;;;;5.11;52.47;100920.47;4956967;28;20027;-80
2023/12/17 00:34:38;;;;;;;4.30;2.65;;;;;;;5.10;52.29;100921.38;4941035;28;20030;-79
2023/12/17 00:37:03;;;;;;;5.13;2.65;;;;;;;5.06;52.40;100920.53;4940588;28;20035;-79
2023/12/17 00:39:29;;;;;;;4.57;2.63;;;;;;;5.05;52.45;100918.84;4940286;28;20043;-80
2023/12/17 00:41:54;;;;;;;4.22;2.58;;;;;;;5.09;52.44;100933.44;4939931;28;20090;-79
2023/12/17 00:44:20;;;;;;;4.93;2.50;;;;;;;5.09;52.67;100930.84;4956539;28;20037;-79
2023/12/17 00:46:45;;;;;;;4.72;2.67;;;;;;;5.09;52.54;100930.84;4973773;28;20031;-80
2023/12/17 00:49:11;;;;;;;5.15;2.70;;;;;;;5.05;52.63;100924.88;4956349;28;20449;-79
2023/12/17 00:51:36;;;;;;;3.95;2.40;;;;;;;5.06;52.65;100926.59;4956580;28;20106;-79
2023/12/17 00:54:02;;;;;;;4.97;2.72;;;;;;;5.08;52.48;100937.75;4940525;28;20089;-79
2023/12/17 00:56:28;;;;;;;4.28;2.75;;;;;;;5.05;52.27;100934.38;4940437;28;20121;-78
2023/12/17 00:58:53;;;;;;;5.30;2.50;;;;;;;5.07;52.40;100942.97;4956520;28;20038;-79
2023/12/17 01:01:19;;;;;;;4.00;2.65;;;;;;;5.06;52.09;100930.91;4956668;28;20050;-78
2023/12/17 01:03:44;;;;;;;5.88;2.90;;;;;;;5.01;51.94;100923.25;4956092;28;20129;-80
2023/12/17 01:06:10;;;;;;;3.95;2.45;;;;;;;5.06;52.63;100928.31;4924432;28;20042;-80
2023/12/17 01:08:35;;;;;;;3.80;2.33;;;;;;;5.04;52.00;100925.78;4940143;28;20043;-79
2023/12/17 01:11:01;;;;;;;4.18;2.67;;;;;;;5.00;52.33;100915.50;4956284;28;20038;-79
2023/12/17 01:13:26;;;;;;;3.28;2.25;;;;;;;5.06;51.85;100923.13;4941265;28;20034;-79
2023/12/17 01:15:51;;;;;;;4.38;2.63;;;;;;;5.05;52.73;100908.50;4959791;28;20479;-78
2023/12/17 01:18:17;;;;;;;4.00;2.63;;;;;;;5.05;52.60;100914.53;4977652;28;20077;-79
2023/12/17 01:20:42;;;;;;;4.63;2.58;;;;;;;5.00;52.42;100892.22;4941982;28;20514;-79
2023/12/17 01:23:08;;;;;;;3.72;2.50;;;;;;;5.04;52.34;100896.44;4944183;28;20076;-80
2023/12/17 01:25:34;;;;;;;4.82;2.55;;;;;;;4.99;52.37;100896.50;4959592;28;20065;-79
2023/12/17 01:27:59;;;;;;;4.03;2.58;;;;;;;5.02;52.55;100900.78;4943813;28;20105;-78
2023/12/17 01:30:25;;;;;;;3.70;2.50;;;;;;;5.01;52.65;100901.66;4928286;28;20042;-79
2023/12/17 01:32:50;;;;;;;3.65;2.38;;;;;;;4.99;52.48;100893.94;4943879;28;20524;-79
2023/12/17 01:35:16;;;;;;;3.97;2.40;;;;;;;5.00;52.43;100897.38;4943535;28;20046;-79
2023/12/17 01:37:41;;;;;;;4.45;2.67;;;;;;;5.03;52.47;100902.50;4943656;28;20128;-78
2023/12/17 01:40:08;;;;;;;3.90;2.40;;;;;;;5.01;52.20;100905.13;4959912;28;20042;-80
2023/12/17 01:42:33;;;;;;;3.78;2.25;;;;;;;5.02;52.66;100909.41;4959720;28;20030;-78
2023/12/17 01:44:59;;;;;;;3.33;2.00;;;;;;;5.02;51.97;100921.50;4927767;28;20039;-78
2023/12/17 01:47:24;;;;;;;3.42;2.35;;;;;;;4.95;52.37;100907.81;4927477;28;20519;-77
2023/12/17 01:49:50;;;;;;;3.42;2.30;;;;;;;4.95;52.61;100899.19;4943292;28;20035;-80
2023/12/17 01:52:15;;;;;;;4.03;2.15;;;;;;;5.00;52.24;100912.91;4943068;28;20030;-78
2023/12/17 01:54:41;;;;;;;4.15;2.40;;;;;;;4.95;51.90;100907.81;4943179;28;20047;-79
2023/12/17 01:57:06;;;;;;;3.33;2.20;;;;;;;4.94;52.31;100902.66;4943514;28;20031;-80
2023/12/17 01:59:32;;;;;;;3.75;2.30;;;;;;;4.92;52.25;100909.59;4942480;28;20057;-79
2023/12/17 02:01:58;;;;;;;3.92;2.38;;;;;;;4.91;52.51;100902.72;4927722;28;20117;-78
2023/12/17 02:04:23;;;;;;;3.53;2.10;;;;;;;4.95;52.54;100913.00;4943825;28;20045;-79
2023/12/17 02:06:49;;;;;;;4.28;2.55;;;;;;;4.95;52.50;100913.00;4927350;28;20159;-79
2023/12/17 02:09:14;;;;;;;4.75;2.80;;;;;;;4.89;52.18;100897.59;4942758;28;20089;-79
2023/12/17 02:11:40;;;;;;;4.38;2.50;;;;;;;4.95;52.48;100907.81;4927289;28;20034;-79
2023/12/17 02:14:05;;;;;;;4.07;2.25;;;;;;;4.91;52.46;100902.72;4943152;28;20383;-78
2023/12/17 02:16:31;;;;;;;5.25;2.50;;;;;;;4.87;52.36;100902.78;4943087;28;20034;-78
2023/12/17 02:19:01;;;;;;;4.13;2.35;;;;;;;4.86;52.28;100897.63;4927114;28;20041;-77
2023/12/17 02:21:26;;;;;;;3.50;2.10;;;;;;;4.92;52.48;100915.63;4943752;28;20106;-80
2023/12/17 02:23:53;;;;;;;4.50;2.72;;;;;;;4.85;52.25;100896.75;4926272;28;20145;-80
2023/12/17 02:26:18;;;;;;;4.32;2.53;;;;;;;4.91;52.57;100903.56;4926900;28;20061;-80
2023/12/17 02:28:45;;;;;;;3.67;2.33;;;;;;;4.89;52.43;100907.94;4975512;28;20031;-79
2023/12/17 02:31:11;;;;;;;3.55;2.08;;;;;;;4.89;52.74;100901.00;4958963;28;20485;-78
2023/12/17 02:33:36;;;;;;;3.60;2.20;;;;;;;4.84;52.61;100894.22;4942266;28;20035;-78
2023/12/17 02:36:02;;;;;;;4.28;2.47;;;;;;;4.87;52.41;100899.31;4957967;28;20046;-79
2023/12/17 02:38:27;;;;;;;4.43;2.45;;;;;;;4.88;52.72;100901.88;4942585;28;20126;-79
2023/12/17 02:40:53;;;;;;;3.58;2.28;;;;;;;4.87;52.63;100895.03;4957927;28;20042;-80
2023/12/17 02:43:18;;;;;;;3.80;2.15;;;;;;;4.86;52.57;100895.03;4958470;28;20038;-79
2023/12/17 02:45:44;;;;;;;4.65;2.60;;;;;;;4.82;52.39;100891.66;4942232;28;20109;-79
2023/12/17 02:48:09;;;;;;;3.53;2.22;;;;;;;4.86;52.23;100901.06;4942662;28;20449;-79
2023/12/17 02:50:35;;;;;;;4.00;2.30;;;;;;;4.79;52.36;100891.72;4975952;28;20038;-78
2023/12/17 02:53:00;;;;;;;3.58;2.38;;;;;;;4.86;52.67;100902.81;4942259;28;20027;-80
2023/12/17 02:55:26;;;;;;;4.35;2.55;;;;;;;4.84;52.44;100907.16;4957697;28;20038;-79
2023/12/17 02:57:51;;;;;;;3.85;2.10;;;;;;;4.84;52.82;100905.44;4942188;28;20121;-78
2023/12/17 03:00:17;;;;;;;4.68;2.50;;;;;;;4.83;52.67;100903.72;4975376;28;20042;-79
2023/12/17 03:02:42;;;;;;;4.88;2.78;;;;;;;4.78;52.63;100899.50;4926172;28;20039;-78
2023/12/17 03:05:08;;;;;;;3.75;2.55;;;;;;;4.83;52.58;100908.03;4942407;28;20030;-79
2023/12/17 03:07:33;;;;;;;5.53;2.38;;;;;;;4.78;52.33;100896.94;4942235;28;20066;-78
2023/12/17 03:09:58;;;;;;;3.50;2.20;;;;;;;4.83;52.49;100905.44;4926236;28;20037;-79
2023/12/17 03:12:24;;;;;;;3.97;2.10;;;;;;;4.78;53.00;100895.19;4925723;28;20039;-80
2023/12/17 03:14:50;;;;;;;3.83;2.33;;;;;;;4.77;52.42;100890.03;4926496;28;20039;-79
2023/12/17 03:17:15;;;;;;;4.05;2.30;;;;;;;4.78;52.61;100894.34;4926273;28;20066;-79
2023/12/17 03:19:41;;;;;;;4.63;2.53;;;;;;;4.81;52.47;100907.22;4942333;28;20035;-78
2023/12/17 03:22:06;;;;;;;3.55;2.30;;;;;;;4.76;52.16;100901.25;4941802;28;20466;-80
2023/12/17 03:24:32;;;;;;;4.65;2.22;;;;;;;4.78;52.48;100913.28;4925999;28;20046;-80
2023/12/17 03:26:57;;;;;;;4.03;2.35;;;;;;;4.75;52.40;100907.31;4922660;29;20059;-80
2023/12/17 03:29:23;;;;;;;4.43;2.15;;;;;;;4.79;52.34;100917.59;4938597;29;20031;-78
2023/12/17 03:31:48;;;;;;;2.92;1.90;;;;;;;4.77;52.63;100908.16;4922963;29;20121;-79
2023/12/17 03:34:14;;;;;;;4.45;2.20;;;;;;;4.77;52.30;100913.31;4954865;29;20474;-79
2023/12/17 03:36:39;;;;;;;3.47;2.30;;;;;;;4.68;52.28;100903.97;4937707;29;20106;-79
2023/12/17 03:39:05;;;;;;;3.20;2.05;;;;;;;4.70;52.47;100908.25;4922396;29;20086;-80
2023/12/17 03:41:31;;;;;;;2.85;1.92;;;;;;;4.72;52.82;100924.59;4939295;29;20059;-78
2023/12/17 03:43:57;;;;;;;4.20;2.45;;;;;;;4.70;52.54;100923.78;4922270;29;20047;-79
2023/12/17 03:46:23;;;;;;;3.78;1.92;;;;;;;4.71;52.82;100932.38;4939000;29;20039;-79
2023/12/17 03:48:48;;;;;;;3.72;2.05;;;;;;;4.69;52.69;100935.00;4938453;29;20023;-81
2023/12/17 03:51:14;;;;;;;3.75;2.20;;;;;;;4.65;52.71;100927.31;4954924;29;20047;-80
2023/12/17 03:53:39;;;;;;;3.75;1.92;;;;;;;4.65;52.74;100932.47;4938424;29;20079;-79
2023/12/17 03:56:09;;;;;;;3.33;2.25;;;;;;;4.65;52.54;100943.69;4954334;29;20063;-79
2023/12/17 03:58:35;;;;;;;3.63;2.00;;;;;;;4.61;52.55;100939.44;4938354;29;20045;-79
2023/12/17 04:01:01;;;;;;;3.35;1.85;;;;;;;4.63;52.79;100942.88;4938064;29;20414;-79
2023/12/17 04:03:27;;;;;;;3.63;1.73;;;;;;;4.64;52.61;100941.13;4937404;29;20102;-78
2023/12/17 04:05:52;;;;;;;5.38;2.50;;;;;;;4.63;52.54;100947.19;4938058;29;20070;-79
2023/12/17 04:08:18;;;;;;;3.33;1.95;;;;;;;4.62;52.62;100940.31;4922290;29;20035;-80
2023/12/17 04:10:43;;;;;;;3.88;2.33;;;;;;;4.60;52.25;100931.72;4938262;29;20034;-80
2023/12/17 04:13:09;;;;;;;3.50;1.77;;;;;;;4.59;52.84;100938.63;4938793;29;20035;-80
2023/12/17 04:15:34;;;;;;;2.97;1.98;;;;;;;4.58;52.78;100929.16;4938474;29;20487;-80
2023/12/17 04:18:00;;;;;;;3.50;2.20;;;;;;;4.55;52.54;100933.53;4938237;29;20062;-78
2023/12/17 04:20:26;;;;;;;2.80;1.98;;;;;;;4.58;52.88;100934.31;4921939;29;20097;-79
2023/12/17 04:22:51;;;;;;;3.95;2.10;;;;;;;4.56;52.67;100941.25;4922143;29;20031;-80
2023/12/17 04:25:16;;;;;;;3.50;2.20;;;;;;;4.56;52.79;100935.25;4937423;29;20055;-78
2023/12/17 04:27:42;;;;;;;4.97;2.10;;;;;;;4.58;52.94;100939.50;4921726;29;20058;-79
2023/12/17 04:30:08;;;;;;;3.72;2.17;;;;;;;4.57;52.76;100942.97;4953739;29;20043;-78
2023/12/17 04:32:33;;;;;;;3.53;2.22;;;;;;;4.53;52.51;100936.97;4953592;29;20031;-79
2023/12/17 04:34:59;;;;;;;4.18;2.13;;;;;;;4.57;52.66;100945.56;4922022;29;20031;-81
2023/12/17 04:37:24;;;;;;;3.42;2.10;;;;;;;4.51;52.35;100933.56;4937410;29;20035;-79
2023/12/17 04:39:50;;;;;;;3.17;1.92;;;;;;;4.58;52.72;100949.00;4937934;29;20072;-79
2023/12/17 04:42:16;;;;;;;3.25;1.73;;;;;;;4.52;52.71;100931.81;4937017;29;20241;-80
2023/12/17 04:44:42;;;;;;;3.58;1.95;;;;;;;4.52;52.55;100940.47;4922159;29;20062;-79
2023/12/17 04:47:07;;;;;;;3.53;2.10;;;;;;;4.57;52.63;100939.50;4953067;28;20518;-80
2023/12/17 04:49:33;;;;;;;3.72;2.00;;;;;;;4.58;52.70;100944.66;4924250;29;20047;-79
2023/12/17 04:51:58;;;;;;;4.30;2.35;;;;;;;4.59;52.69;100937.78;4941338;29;20023;-79
2023/12/17 04:54:24;;;;;;;4.38;1.92;;;;;;;4.58;52.81;100939.50;4940867;29;20051;-79
2023/12/17 04:56:49;;;;;;;3.70;2.10;;;;;;;4.58;52.41;100946.41;4941175;29;20039;-80
2023/12/17 04:59:15;;;;;;;3.40;1.98;;;;;;;4.57;52.59;100940.38;4925363;29;20070;-80
2023/12/17 05:01:41;;;;;;;2.83;1.95;;;;;;;4.59;52.65;100941.22;4925034;29;20035;-79
2023/12/17 05:04:06;;;;;;;3.95;1.98;;;;;;;4.53;52.52;100936.13;4924984;29;20042;-79
2023/12/17 05:06:31;;;;;;;2.88;1.80;;;;;;;4.59;52.96;100948.97;4941111;29;20027;-78
2023/12/17 05:08:57;;;;;;;3.50;1.98;;;;;;;4.58;52.89;100946.41;4940581;29;20058;-79
2023/12/17 05:11:22;;;;;;;3.50;2.15;;;;;;;4.51;52.51;100936.16;4941048;29;20067;-79
2023/12/17 05:13:48;;;;;;;3.80;2.17;;;;;;;4.51;52.75;100938.75;4924158;29;20101;-79
2023/12/17 05:16:13;;;;;;;3.55;2.00;;;;;;;4.56;52.75;100946.44;4940829;29;20094;-80
2023/12/17 05:18:39;;;;;;;3.70;2.00;;;;;;;4.56;52.17;100956.78;4938186;29;20066;-81
2023/12/17 05:21:06;;;;;;;4.25;2.03;;;;;;;4.55;52.41;100960.22;4940897;29;20035;-80
2023/12/17 05:23:31;;;;;;;3.50;2.10;;;;;;;4.51;52.44;100951.69;4941092;29;20086;-79
2023/12/17 05:25:58;;;;;;;3.45;2.03;;;;;;;4.55;53.08;100961.97;4940574;29;20070;-79
2023/12/17 05:28:24;;;;;;;3.35;1.90;;;;;;;4.55;52.67;100969.75;4940719;29;20421;-80
2023/12/17 05:30:49;;;;;;;4.15;2.15;;;;;;;4.50;52.68;100957.72;4956844;29;20038;-79
2023/12/17 05:33:15;;;;;;;3.63;2.10;;;;;;;4.56;52.78;100967.13;4940352;29;20027;-79
2023/12/17 05:35:42;;;;;;;2.95;1.83;;;;;;;4.57;52.32;100971.44;4924804;29;20123;-80
2023/12/17 05:38:07;;;;;;;3.42;1.98;;;;;;;4.53;52.76;100962.84;4940249;29;20038;-80
2023/12/17 05:40:33;;;;;;;3.50;1.85;;;;;;;4.59;52.59;100974.00;4923834;29;20047;-79
2023/12/17 05:42:59;;;;;;;3.58;1.90;;;;;;;4.59;52.92;100961.06;4956100;29;20027;-79
2023/12/17 05:45:24;;;;;;;4.20;2.10;;;;;;;4.55;52.20;100952.47;4955460;29;20419;-79
2023/12/17 05:47:50;;;;;;;3.33;1.98;;;;;;;4.63;52.43;100966.16;4956020;29;20023;-80
2023/12/17 05:50:15;;;;;;;4.22;2.20;;;;;;;4.76;52.42;100965.94;4939910;29;20035;-79
2023/12/17 05:52:41;;;;;;;3.30;2.08;;;;;;;5.07;51.53;100971.44;4939251;29;20142;-79
2023/12/17 05:55:07;;;;;;;5.57;2.45;;;;;;;5.52;50.47;100980.97;4940098;29;20076;-79
2023/12/17 05:57:33;;;;;;;3.65;2.08;;;;;;;6.09;49.70;100979.88;4956118;29;20503;-83
2023/12/17 05:59:59;;;;;;;2.70;1.88;;;;;;;6.79;49.03;100969.56;4923554;29;20038;-83
2023/12/17 06:02:24;;;;;;;2.85;1.83;;;;;;;7.58;47.42;100967.50;4940359;29;20024;-81
2023/12/17 06:04:50;;;;;;;3.40;1.98;;;;;;;8.42;45.19;100969.31;4955961;29;20039;-80
2023/12/17 06:07:17;;;;;;;3.33;2.17;;;;;;;9.36;43.86;100962.75;4923925;29;20027;-80
2023/12/17 06:09:42;;;;;;;3.92;2.00;;;;;;;10.35;42.01;100967.75;4920425;29;20035;-78
2023/12/17 06:12:08;;;;;;;3.35;1.98;;;;;;;11.20;40.04;100966.88;4948302;29;20051;-81
2023/12/17 06:14:33;;;;;;;2.42;1.67;;;;;;;12.14;38.31;100970.53;4928525;29;20432;-81
2023/12/17 06:16:59;;;;;;;3.72;1.90;;;;;;;13.08;36.56;100972.94;4928400;29;20067;-80
2023/12/17 06:19:24;;;;;;;3.22;1.75;;;;;;;14.01;35.24;100979.44;4947668;29;20044;-81
2023/12/17 06:21:50;;;;;;;2.80;1.90;;;;;;;14.97;33.42;100982.81;4929172;29;20027;-80
2023/12/17 06:24:15;;;;;;;2.80;1.75;;;;;;;15.89;31.88;100974.63;4907322;29;20067;-79
2023/12/17 06:26:41;;;;;;;3.17;2.13;;;;;;;16.85;30.55;100983.41;4935689;29;20062;-80
2023/12/17 06:29:12;;;;;;;2.70;2.00;;;;;;;17.71;29.21;100980.16;4920536;29;20062;-81
2023/12/17 06:31:41;;;;;;;2.67;1.75;;;;;;;18.66;27.80;100983.03;4923421;29;20071;-80
2023/12/17 06:34:06;;;;;;;;;;;;;;;19.40;26.52;100988.03;4920295;29;20040;-78
2023/12/17 06:36:32;;;;;;;3.10;2.20;;;;;;;20.27;25.63;100987.38;4935752;29;20272;-81
2023/12/17 06:38:58;;;;;;;3.30;2.10;;;;;;;20.98;25.18;100981.53;4920634;29;20043;-79
2023/12/17 06:41:23;;;;;;;3.35;2.22;;;;;;;21.62;24.19;100996.47;4919218;29;20031;-78
2023/12/17 06:43:49;;;;;;;4.15;2.47;;;;;;;22.14;23.48;100991.03;4936119;29;20119;-85
2023/12/17 06:46:17;;;;;;;2.63;1.50;;;;;;;22.84;29.62;100990.94;4936578;29;20114;-78
2023/12/17 06:48:43;;;;;;;4.20;1.55;;;;;;;23.26;29.34;100993.28;4920319;29;20031;-77
2023/12/17 06:51:09;;;;;;;3.05;1.70;;;;;;;23.63;27.22;100991.59;4904277;29;20510;-78
2023/12/17 06:53:34;;;;;;;7.57;2.08;;;;;;;23.70;25.97;100994.50;4938623;29;20047;-76
2023/12/17 06:56:00;;;;;;;5.78;2.78;;;;;;;23.73;25.36;100991.53;4926007;29;20038;-75
2023/12/17 06:58:25;;;;;;;6.10;3.08;;;;;;;23.58;25.28;101002.69;4919563;29;20039;-76
2023/12/17 07:00:51;;;;;;;6.07;3.60;;;;;;;23.39;24.94;101005.41;4936702;29;20031;-76
2023/12/17 07:03:19;;;;;;;6.22;4.00;;;;;;;23.04;25.13;101010.41;4919514;29;20034;-78
2023/12/17 07:05:45;;;;;;;7.30;4.35;;;;;;;22.75;25.45;101003.25;4923381;29;20119;-85
2023/12/17 07:08:10;;;;;;;6.80;4.28;;;;;;;22.46;25.55;101010.44;4954756;29;20118;-77
2023/12/17 07:10:36;;;;;;;6.90;4.63;;;;;;;22.30;25.43;101011.81;4955467;28;20031;-83
2023/12/17 07:13:03;;;;;;;8.23;4.75;;;;;;;22.18;25.35;101019.00;4923013;29;20067;-78
2023/12/17 07:15:29;;;;;;;7.45;5.05;;;;;;;22.02;25.59;101022.19;4954419;29;20097;-79
2023/12/17 07:17:54;;;;;;;7.70;4.80;;;;;;;21.81;25.48;101013.47;4938781;29;20554;-77
2023/12/17 07:20:20;;;;;;;8.52;4.80;;;;;;;21.54;26.01;101014.03;4922727;29;20031;-83
2023/12/17 07:22:45;;;;;;;7.15;4.68;;;;;;;21.41;25.82;101006.25;4921675;29;20070;-81
2023/12/17 07:25:11;;;;;;;7.97;4.60;;;;;;;21.36;25.82;101013.78;4905768;29;20055;-77
2023/12/17 07:27:37;;;;;;;8.55;4.18;;;;;;;21.43;25.48;101004.34;4938443;29;20554;-77
2023/12/17 07:30:02;;;;;;;6.05;4.35;;;;;;;21.56;25.28;101009.44;4954787;29;20090;-77
2023/12/17 07:32:28;;;;;;;6.60;4.63;;;;;;;21.73;24.85;101003.50;4922770;29;20118;-79
2023/12/17 07:34:54;;;;;;;8.02;3.60;;;;;;;21.82;27.55;101010.69;4922546;29;20039;-77
2023/12/17 07:37:19;;;;;;;6.20;3.92;;;;;;;22.04;26.30;101008.75;4953993;29;20388;-79
2023/12/17 07:39:45;;;;;;;11.43;4.15;;;;;;;22.15;27.75;101013.97;4951788;29;20110;-79
2023/12/17 07:42:11;;;;;;;9.25;3.60;;;;;;;22.28;28.36;101010.22;4922211;29;20384;-77
2023/12/17 07:44:36;;;;;;;8.85;4.20;;;;;;;22.39;27.25;101005.66;4935330;29;20089;-78
2023/12/17 07:47:02;;;;;;;9.23;3.88;;;;;;;22.45;30.08;101019.38;4929438;29;20087;-77
2023/12/17 07:49:28;;;;;;;9.73;4.10;;;;;;;22.50;28.41;101018.00;4903218;29;20040;-77
2023/12/17 07:51:53;;;;;;;8.93;4.35;;;;;;;22.67;27.14;101019.09;4948504;29;20098;-78
2023/12/17 07:54:19;;;;;;;10.40;5.03;;;;;;;22.84;26.54;101014.91;4953618;29;20047;-79
2023/12/17 07:56:44;;;;;;;7.97;4.63;;;;;;;23.01;25.83;101016.00;4937911;29;20058;-77
2023/12/17 07:59:10;;;;;;;7.85;5.00;;;;;;;22.83;22.54;101005.22;4922641;29;20039;-79
2023/12/17 08:01:35;;;;;;;10.65;5.55;;;;;;;22.27;21.45;100993.41;4937454;29;20411;-78
2023/12/17 08:04:01;;;;;;;8.98;5.80;;;;;;;21.75;20.52;100998.88;4947507;29;20542;-78
2023/12/17 08:06:26;;;;;;;8.55;5.95;;;;;;;21.17;20.94;100988.78;4921214;29;20034;-78
2023/12/17 08:08:53;;;;;;;9.45;5.25;;;;;;;20.97;20.95;100995.81;4921377;29;20491;-82
2023/12/17 08:11:18;;;;;;;8.82;5.28;;;;;;;20.67;21.30;101000.06;4937652;29;20082;-80
2023/12/17 08:13:44;;;;;;;10.68;5.57;;;;;;;20.36;21.48;100983.97;4953828;29;20491;-80
2023/12/17 08:16:09;;;;;;;7.95;5.45;;;;;;;20.21;21.66;100987.91;4953711;29;20038;-81
2023/12/17 08:18:35;;;;;;;10.18;5.85;;;;;;;20.14;21.83;100992.00;4953573;29;20414;-77
2023/12/17 08:21:01;;;;;;;8.38;4.68;;;;;;;20.54;29.39;100994.91;4952815;29;20039;-73
2023/12/17 08:23:26;;;;;;;9.55;5.13;;;;;;;20.61;28.28;100990.75;4951742;28;20051;-73
2023/12/17 08:25:52;;;;;;;9.48;5.97;;;;;;;20.54;22.78;100991.38;4920674;29;20074;-73
2023/12/17 08:28:19;;;;;;;11.85;5.82;;;;;;;20.40;22.12;100987.25;4954281;29;20035;-74
2023/12/17 08:30:45;;;;;;;10.50;5.47;;;;;;;20.32;22.09;100987.00;4937067;29;20121;-77
2023/12/17 08:33:10;;;;;;;9.57;6.60;;;;;;;20.34;21.76;100987.75;4953062;29;20034;-73
2023/12/17 08:35:38;;;;;;;11.13;5.85;;;;;;;20.43;21.73;100985.16;4937461;29;20039;-74
2023/12/17 08:38:05;;;;;;;;;;;;;;;20.31;21.74;100977.38;4937915;29;20040;-75
2023/12/17 08:40:34;;;;;;;11.90;5.38;;;;;;;20.34;21.49;100974.47;4954640;29;20005;-81
2023/12/17 08:43:03;;;;;;;12.07;4.53;;;;;;;20.80;26.63;100975.16;4951529;29;20028;-80
2023/12/17 08:45:32;;;;;;;8.98;4.50;;;;;;;20.91;23.09;100978.56;4920902;29;20507;-85
2023/12/17 08:47:57;;;;;;;;;;;;;;;21.12;21.92;100970.59;4952983;29;20114;-71
2023/12/17 08:50:22;;;;;;;15.82;8.07;;;;;;;21.33;20.86;100973.25;4953534;29;20042;-77
2023/12/17 08:52:48;;;;;;;10.15;5.93;;;;;;;21.65;20.38;100968.78;4935617;29;20127;-72
2023/12/17 08:55:14;;;;;;;21.88;9.70;;;;;;;21.99;20.15;100961.31;4951473;29;20038;-74
2023/12/17 08:57:39;;;;;;;10.98;6.28;;;;;;;22.49;19.40;100972.88;4951821;29;20109;-73
2023/12/17 09:00:05;;;;;;;15.73;8.07;;;;;;;22.79;24.72;100963.03;4952301;29;20492;-72
2023/12/17 09:02:31;;;;;;;24.73;9.43;;;;;;;23.03;20.46;100958.09;4935408;29;20027;-74
2023/12/17 09:04:57;;;;;;;22.02;8.88;;;;;;;23.09;19.60;100944.25;4920656;29;20039;-88
2023/12/17 09:07:23;;;;;;;13.38;6.47;;;;;;;23.13;18.63;100939.44;4927245;29;20563;-80
2023/12/17 09:09:49;;;;;;;13.27;5.78;;;;;;;23.21;18.50;100938.72;4949397;29;20043;-79
2023/12/17 09:12:16;;;;;;;11.50;4.43;;;;;;;23.10;18.86;100942.41;4932703;29;20042;-82
2023/12/17 09:14:41;;;;;;;11.40;4.20;;;;;;;23.18;18.66;100942.50;4953769;29;20078;-79
2023/12/17 09:17:07;;;;;;;10.63;3.90;;;;;;;23.29;19.34;100938.84;4935008;29;20039;-82
2023/12/17 09:19:32;;;;;;;8.77;3.42;;;;;;;23.31;21.53;100934.22;4953010;28;20043;-80
2023/12/17 09:21:58;;;;;;;6.75;2.60;;;;;;;23.42;19.13;100930.50;4945870;28;20032;-79
2023/12/17 09:24:23;;;;;;;9.23;5.93;;;;;;;23.43;18.30;100924.19;4923128;29;20079;-77
2023/12/17 09:26:49;;;;;;;7.57;6.10;;;;;;;23.56;18.08;100924.72;4915230;29;20405;-77
2023/12/17 09:29:14;;;;;;;22.17;16.48;;;;;;;23.59;20.44;100929.72;4943711;28;20396;-74
2023/12/17 09:31:40;;;;;;;21.27;14.93;;;;;;;23.92;19.60;100926.63;4951798;29;20031;-76
2023/12/17 09:34:06;;;;;;;15.00;9.20;;;;;;;24.50;19.20;100922.66;4919137;28;20474;-75
2023/12/17 09:36:32;;;;;;;11.45;8.18;;;;;;;25.32;18.20;100914.34;4938683;29;20038;-77
2023/12/17 09:38:58;;;;;;;6.82;5.53;;;;;;;26.23;18.22;100915.47;4955596;28;20502;-78
2023/12/17 09:41:24;;;;;;;7.93;4.63;;;;;;;26.93;18.23;100914.94;4932924;29;20044;-77
2023/12/17 09:43:50;;;;;;;6.13;3.60;;;;;;;27.92;17.29;100919.88;4931436;29;20122;-77
2023/12/17 09:46:15;;;;;;;4.05;2.78;;;;;;;28.91;16.00;100906.50;4955291;28;20055;-78
2023/12/17 09:48:41;;;;;;;4.20;2.00;;;;;;;29.73;14.86;100905.50;4938581;29;20102;-78
2023/12/17 09:51:07;;;;;;;4.22;2.40;;;;;;;30.56;15.67;100913.16;4937651;29;20495;-76
2023/12/17 09:53:34;;;;;;;4.13;2.33;;;;;;;31.18;16.48;100903.38;4950899;29;20032;-78
2023/12/17 09:56:00;;;;;;;;;;;;;;;31.84;15.31;100902.00;4919714;29;20058;-77
2023/12/17 09:58:29;;;;;;;3.97;2.08;;;;;;;32.21;15.51;100891.69;4934960;29;19914;-78
2023/12/17 10:00:55;;;;;;;2.50;1.73;;;;;;;32.72;14.48;100892.91;4919486;29;20083;-77
2023/12/17 10:03:20;;;;;;;2.88;1.50;;;;;;;32.83;14.24;100875.22;4918996;29;20110;-82
2023/12/17 10:05:50;;;;;;;3.58;1.65;;;;;;;33.42;14.26;100880.63;4922986;29;20122;-76
2023/12/17 10:08:16;;;;;;;3.80;1.98;;;;;;;33.60;14.14;100879.91;4937949;29;20510;-78
2023/12/17 10:10:41;;;;;;;3.63;1.60;;;;;;;33.73;14.48;100877.13;4922388;29;20063;-82
2023/12/17 10:13:07;;;;;;;5.53;1.60;;;;;;;33.51;13.79;100872.03;4937336;29;20050;-82
2023/12/17 10:15:36;;;;;;;3.28;1.60;;;;;;;33.47;13.47;100878.91;4938187;29;20162;-81
2023/12/17 10:18:03;;;;;;;4.10;1.65;;;;;;;33.04;13.77;100884.09;4938344;29;20055;-87
2023/12/17 10:20:28;;;;;;;3.70;1.90;;;;;;;32.42;13.37;100881.72;4937618;29;20039;-86
2023/12/17 10:23:03;;;;;;;5.18;3.08;;;;;;;31.65;13.37;100883.88;4936399;29;20570;-86
2023/12/17 10:25:28;;;;;;;2.90;1.90;;;;;;;30.81;14.03;100883.88;4916136;29;20153;-85
2023/12/17 10:27:58;;;;;;;2.95;1.55;;;;;;;29.92;16.16;100871.78;4921930;29;20068;-76
2023/12/17 10:30:33;;;;;;;4.95;1.98;;;;;;;29.10;16.98;100872.00;4954114;29;20066;-76
2023/12/17 10:33:00;;;;;;;3.75;1.50;;;;;;;28.47;16.58;100861.59;4952772;29;20047;-77
2023/12/17 10:35:26;;;;;;;24.77;10.20;;;;;;;27.89;19.04;100866.56;4921270;28;20054;-74
2023/12/17 10:38:02;;;;;;;72.80;19.20;;;;;;;27.47;21.86;100866.00;4953219;29;20042;-73
2023/12/17 10:40:29;;;;;;;21.25;6.30;;;;;;;26.61;16.15;100848.81;4938854;28;20038;-81
2023/12/17 10:42:56;;;;;;;18.25;5.55;;;;;;;22.91;19.25;100848.25;4937602;29;20066;-75
2023/12/17 10:45:22;;;;;;;6.63;2.70;;;;;;;21.93;21.63;100846.69;4953462;28;20042;-78
2023/12/17 10:47:56;;;;;;;5.38;2.15;;;;;;;22.16;19.47;100841.94;4954383;29;20027;-73
2023/12/17 10:50:22;;;;;;;24.23;6.70;;;;;;;22.37;20.88;100845.28;4923552;29;20121;-78
2023/12/17 10:52:48;;;;;;;23.83;6.38;;;;;;;21.38;21.76;100853.31;4922667;29;20118;-78
2023/12/17 10:55:16;;;;;;;33.83;10.60;;;;;;;21.43;26.21;100848.41;4937615;29;20043;-75
2023/12/17 10:57:51;;;;;;;25.95;6.57;;;;;;;21.84;26.48;100843.88;4934043;29;20036;-79
2023/12/17 11:00:18;;;;;;;11.60;3.80;;;;;;;22.01;24.64;100833.53;4918757;29;20042;-73
2023/12/17 11:02:44;;;;;;;6.35;2.70;;;;;;;21.97;23.23;100829.50;4917442;29;20048;-73
2023/12/17 11:05:11;;;;;;;10.88;2.40;;;;;;;21.83;24.41;100822.75;4917006;29;20034;-77
2023/12/17 11:07:37;;;;;;;3.37;1.73;;;;;;;22.00;23.14;100813.25;4917948;29;20044;-75
2023/12/17 11:10:02;;;;;;;3.00;1.83;;;;;;;21.89;22.99;100803.59;4917520;29;20042;-78
2023/12/17 11:12:28;;;;;;;3.92;2.03;;;;;;;21.48;22.50;100802.84;4917848;29;20097;-78
2023/12/17 11:14:54;;;;;;;5.32;2.30;;;;;;;21.49;22.72;100800.06;4917659;29;20036;-78
2023/12/17 11:17:19;;;;;;;6.55;2.42;;;;;;;20.97;23.83;100807.31;4921128;29;20107;-77
2023/12/17 11:19:54;;;;;;;8.02;2.15;;;;;;;20.92;27.01;100813.03;4916978;29;20031;-76
2023/12/17 11:22:22;;;;;;;3.38;2.20;;;;;;;20.73;25.40;100811.13;4938486;28;20035;-78